Time;durP1;ratioP1;P1;durP2;ratioP2;P2;SDS_P1;SDS_P2;PMS_P1;PMS_P2;Temp;Humidity;BMP_temperature;BMP_pressure;BME280_temperature;BME280_humidity;BME280_pressure;Samples;Min_cycle;Max_cycle;Signal;HPM_P1;HPM_P2
2023/08/07 00:03:18;;;;;;;0.60;0.60;;;14.70;99.90;;;;;;21009050;28;20731;-62
2023/08/07 00:13:21;;;;;;;1.40;0.80;;;14.70;99.90;;;;;;21008221;28;20282;-80
2023/08/07 00:23:23;;;;;;;1.00;0.90;;;14.70;99.90;;;;;;21007423;28;20211;-70
2023/08/07 00:33:25;;;;;;;0.77;0.73;;;14.70;99.90;;;;;;21006483;28;20252;-72
2023/08/07 00:43:26;;;;;;;1.20;0.90;;;14.70;99.90;;;;;;21006123;28;20217;-62
2023/08/07 00:53:28;;;;;;;0.70;0.70;;;14.60;99.90;;;;;;21005207;28;20600;-61
2023/08/07 01:03:30;;;;;;;1.10;0.70;;;14.50;99.90;;;;;;21004104;28;20707;-80
2023/08/07 01:13:38;;;;;;;2.80;1.00;;;14.60;99.90;;;;;;21003945;28;20635;-83
2023/08/07 01:23:40;;;;;;;1.20;0.90;;;14.50;99.90;;;;;;21002779;28;20691;-76
2023/08/07 01:33:57;;;;;;;2.10;0.90;;;14.50;99.90;;;;;;21002209;28;20234;-85
2023/08/07 01:43:59;;;;;;;3.07;0.90;;;14.50;99.90;;;;;;21001716;28;20567;-64
2023/08/07 01:54:01;;;;;;;1.70;0.80;;;14.50;99.90;;;;;;21000264;28;20565;-81
2023/08/07 02:04:03;;;;;;;2.33;0.90;;;14.40;99.90;;;;;;20999512;28;20207;-82
2023/08/07 02:14:05;;;;;;;4.10;0.83;;;14.40;99.90;;;;;;20997921;28;20603;-82
2023/08/07 02:24:06;;;;;;;2.67;1.10;;;14.40;99.90;;;;;;21031507;28;20307;-83
2023/08/07 02:34:08;;;;;;;2.63;1.30;;;14.40;99.90;;;;;;20998379;28;20317;-74
2023/08/07 02:44:10;;;;;;;3.53;1.40;;;14.40;99.90;;;;;;20998686;28;20211;-83
2023/08/07 02:54:12;;;;;;;3.23;1.20;;;14.40;99.90;;;;;;20996130;28;20836;-61
2023/08/07 03:04:14;;;;;;;4.93;1.67;;;14.40;99.90;;;;;;21020845;28;20204;-77
2023/08/07 03:14:15;;;;;;;4.93;1.70;;;14.40;99.90;;;;;;21079272;28;20265;-70
2023/08/07 03:24:17;;;;;;;2.80;1.50;;;14.40;99.90;;;;;;21079620;28;20238;-80
2023/08/07 03:34:19;;;;;;;6.00;1.90;;;14.30;99.90;;;;;;21096012;28;20716;-80
2023/08/07 03:44:21;;;;;;;7.63;2.43;;;14.30;99.90;;;;;;21097816;28;20296;-83
2023/08/07 03:54:22;;;;;;;8.87;2.20;;;14.30;99.90;;;;;;21095822;28;20234;-79
2023/08/07 04:04:24;;;;;;;4.37;2.10;;;14.30;99.90;;;;;;21095403;28;20237;-88
2023/08/07 04:14:26;;;;;;;6.50;1.90;;;14.20;99.90;;;;;;21093871;28;20694;-79
2023/08/07 04:24:28;;;;;;;5.77;2.00;;;14.20;99.90;;;;;;21092911;28;20202;-86
2023/08/07 04:34:29;;;;;;;3.87;2.20;;;14.20;99.90;;;;;;21092715;28;20710;-85
2023/08/07 04:44:31;;;;;;;6.77;2.03;;;14.30;99.90;;;;;;21089844;28;20631;-80
2023/08/07 04:54:33;;;;;;;7.07;2.30;;;14.20;99.90;;;;;;21091445;28;20238;-86
2023/08/07 05:04:35;;;;;;;7.10;2.27;;;14.20;99.90;;;;;;21088991;28;20725;-71
2023/08/07 05:14:36;;;;;;;5.83;2.17;;;14.30;99.90;;;;;;21090446;28;20326;-75
2023/08/07 05:24:38;;;;;;;7.87;2.60;;;14.20;99.90;;;;;;21087572;28;20567;-72
2023/08/07 05:34:41;;;;;;;6.40;2.17;;;14.30;99.90;;;;;;21086756;28;20234;-78
2023/08/07 05:44:43;;;;;;;6.17;2.20;;;14.30;99.90;;;;;;21085518;28;20226;-84
2023/08/07 05:54:44;;;;;;;4.93;1.90;;;14.40;99.90;;;;;;21083495;28;20262;-85
2023/08/07 06:04:47;;;;;;;7.60;2.80;;;14.40;99.90;;;;;;21083672;28;20225;-68
2023/08/07 06:14:48;;;;;;;5.33;2.47;;;14.40;99.90;;;;;;21083105;28;20238;-65
2023/08/07 06:24:50;;;;;;;3.70;2.00;;;14.50;99.90;;;;;;21082893;28;20290;-60
2023/08/07 06:34:52;;;;;;;5.10;2.20;;;14.60;99.90;;;;;;21069572;28;20326;-60
2023/08/07 06:44:54;;;;;;;7.53;2.80;;;14.60;99.90;;;;;;21013626;28;20673;-63
2023/08/07 06:54:56;;;;;;;4.50;2.17;;;14.70;99.90;;;;;;20996657;28;20694;-86
2023/08/07 07:04:58;;;;;;;5.33;2.20;;;14.90;99.70;;;;;;20995652;28;20314;-84
2023/08/07 07:15:00;;;;;;;5.30;1.93;;;15.10;99.30;;;;;;20997973;28;20226;-77
2023/08/07 07:25:02;;;;;;;6.43;2.80;;;15.10;99.00;;;;;;21035178;28;20221;-86
2023/08/07 07:35:04;;;;;;;5.03;2.27;;;15.20;98.80;;;;;;20995907;28;20266;-60
2023/08/07 07:45:06;;;;;;;4.97;2.20;;;15.30;98.50;;;;;;20995718;28;20243;-60
2023/08/07 07:55:09;;;;;;;4.40;2.03;;;15.30;98.30;;;;;;20993546;28;20289;-60
2023/08/07 08:05:12;;;;;;;4.27;1.73;;;15.40;98.30;;;;;;20992663;28;20323;-64
2023/08/07 08:15:14;;;;;;;3.00;1.80;;;15.30;98.10;;;;;;21000092;28;20635;-60
2023/08/07 08:25:17;;;;;;;4.67;1.70;;;15.40;98.00;;;;;;21007598;28;20250;-63
2023/08/07 08:35:19;;;;;;;3.87;1.77;;;15.40;97.90;;;;;;21006577;28;20231;-65
2023/08/07 08:45:22;;;;;;;4.07;1.87;;;15.30;97.50;;;;;;21006152;28;20655;-80
2023/08/07 08:55:25;;;;;;;4.00;1.77;;;15.30;97.50;;;;;;21006855;28;20781;-78
2023/08/07 09:05:27;;;;;;;4.50;2.07;;;15.20;97.40;;;;;;21005172;28;20333;-85
2023/08/07 09:15:31;;;;;;;7.57;2.27;;;15.20;97.50;;;;;;21004322;28;20326;-85
2023/08/07 09:25:34;;;;;;;6.07;2.27;;;15.20;97.40;;;;;;21003396;28;20207;-63
2023/08/07 09:35:36;;;;;;;6.33;2.17;;;15.30;97.10;;;;;;21001976;28;20740;-70
2023/08/07 09:45:40;;;;;;;9.27;2.20;;;15.40;96.90;;;;;;21001395;28;20568;-63
2023/08/07 09:55:42;;;;;;;11.67;2.37;;;15.40;96.30;;;;;;21000584;28;20754;-81
2023/08/07 10:05:44;;;;;;;6.30;2.50;;;15.50;96.10;;;;;;20999744;28;20240;-68
2023/08/07 10:15:47;;;;;;;5.60;2.00;;;15.60;95.80;;;;;;20998656;28;20702;-72
2023/08/07 10:25:50;;;;;;;7.33;1.70;;;15.70;95.70;;;;;;20998138;28;20218;-66
2023/08/07 10:35:53;;;;;;;3.57;1.40;;;16.10;95.30;;;;;;20996634;28;20329;-64
2023/08/07 10:46:10;;;;;;;4.60;1.57;;;16.20;94.80;;;;;;20996715;28;20293;-78
2023/08/07 10:56:34;;;;;;;4.30;1.73;;;16.20;94.80;;;;;;20996794;28;20595;-75
2023/08/07 11:06:37;;;;;;;4.47;1.77;;;16.10;94.80;;;;;;21039150;28;20317;-71
2023/08/07 11:16:40;;;;;;;3.73;1.77;;;16.00;95.10;;;;;;21078732;28;20227;-63
2023/08/07 11:26:45;;;;;;;4.37;2.23;;;16.10;95.40;;;;;;21079120;28;20231;-75
2023/08/07 11:36:46;;;;;;;5.37;2.00;;;16.10;95.50;;;;;;21078390;28;20242;-85
2023/08/07 11:46:50;;;;;;;3.53;1.70;;;16.00;95.60;;;;;;21043181;28;20221;-76
2023/08/07 11:56:52;;;;;;;4.10;2.00;;;15.90;95.80;;;;;;21010759;28;20636;-64
2023/08/07 12:06:55;;;;;;;3.53;1.80;;;16.20;95.80;;;;;;21008448;28;20239;-72
2023/08/07 12:17:01;;;;;;;3.40;2.13;;;16.50;95.70;;;;;;21007870;28;20245;-67
2023/08/07 12:27:04;;;;;;;2.20;1.50;;;16.40;95.60;;;;;;21007820;28;20662;-67
2023/08/07 12:37:06;;;;;;;4.43;2.07;;;16.60;95.70;;;;;;21006406;28;20267;-72
2023/08/07 12:47:08;;;;;;;3.53;2.40;;;16.70;95.30;;;;;;21005831;28;20295;-67
2023/08/07 12:57:10;;;;;;;4.87;1.80;;;16.40;95.40;;;;;;21004501;28;20231;-67
2023/08/07 13:07:12;;;;;;;3.10;1.83;;;16.40;95.80;;;;;;21071704;28;20264;-68
2023/08/07 13:17:14;;;;;;;4.67;1.97;;;16.50;95.60;;;;;;21086767;28;20234;-67
2023/08/07 13:27:15;;;;;;;5.10;1.87;;;16.40;95.70;;;;;;21084750;28;20237;-74
2023/08/07 13:37:17;;;;;;;2.83;2.00;;;16.30;95.60;;;;;;21085032;28;20700;-69
2023/08/07 13:47:20;;;;;;;6.23;2.40;;;16.40;95.60;;;;;;21084769;28;20203;-67
2023/08/07 13:57:22;;;;;;;5.00;2.67;;;16.50;95.70;;;;;;21084071;28;20234;-69
2023/08/07 14:07:24;;;;;;;3.03;2.30;;;16.50;95.60;;;;;;21082896;28;20261;-66
2023/08/07 14:17:25;;;;;;;6.60;1.73;;;17.00;95.30;;;;;;21081179;28;20258;-69
2023/08/07 14:27:27;;;;;;;3.73;1.80;;;18.50;93.00;;;;;;21081468;28;20650;-66
2023/08/07 14:37:29;;;;;;;5.03;1.90;;;19.50;91.10;;;;;;21080554;28;20780;-65
2023/08/07 14:47:31;;;;;;;5.13;2.20;;;19.50;86.30;;;;;;21079477;28;20678;-66
2023/08/07 14:57:33;;;;;;;3.97;1.77;;;;;;;;;;21077981;28;20238;-65
2023/08/07 15:07:34;;;;;;;6.43;2.58;;;18.80;86.40;;;;;;21078675;28;20241;-65
2023/08/07 15:17:36;;;;;;;4.37;1.80;;;24.30;69.20;;;;;;21056466;28;20681;-65
2023/08/07 15:27:38;;;;;;;5.73;2.10;;;21.90;70.80;;;;;;21061289;28;20328;-66
2023/08/07 15:37:40;;;;;;;9.37;2.30;;;20.60;72.20;;;;;;21105625;28;20594;-72
2023/08/07 15:47:41;;;;;;;5.50;1.90;;;20.10;73.30;;;;;;21104692;28;20233;-78
2023/08/07 15:57:43;;;;;;;6.17;2.80;;;19.70;74.40;;;;;;21076905;28;20242;-67
2023/08/07 16:07:45;;;;;;;3.07;1.80;;;19.40;75.80;;;;;;21104481;28;20321;-67
2023/08/07 16:17:47;;;;;;;3.90;2.30;;;19.40;77.00;;;;;;21104594;28;20238;-67
2023/08/07 16:27:50;;;;;;;4.67;2.20;;;19.70;76.40;;;;;;21104474;28;20570;-62
2023/08/07 16:37:52;;;;;;;3.93;2.00;;;19.50;75.30;;;;;;21093541;28;20292;-68
2023/08/07 16:47:56;;;;;;;4.77;1.60;;;19.50;74.60;;;;;;21089144;28;20677;-68
2023/08/07 16:57:58;;;;;;;3.93;1.80;;;19.40;75.00;;;;;;21065405;28;20583;-67
2023/08/07 17:08:00;;;;;;;6.83;2.03;;;19.40;76.30;;;;;;21088226;28;20238;-63
2023/08/07 17:18:03;;;;;;;5.33;1.73;;;19.60;75.60;;;;;;21087462;28;20265;-74
2023/08/07 17:28:06;;;;;;;3.27;1.93;;;19.70;74.50;;;;;;21087174;28;20221;-64
2023/08/07 17:38:08;;;;;;;3.50;1.80;;;19.40;74.50;;;;;;21085850;28;20708;-69
2023/08/07 17:48:10;;;;;;;5.70;1.97;;;19.20;75.10;;;;;;21085028;28;20630;-66
2023/08/07 17:58:12;;;;;;;5.97;2.23;;;19.20;75.30;;;;;;21084563;28;20283;-74
2023/08/07 18:08:14;;;;;;;3.03;1.70;;;19.20;75.70;;;;;;21099044;28;20275;-76
2023/08/07 18:18:15;;;;;;;5.30;2.20;;;19.10;76.00;;;;;;21082135;28;20269;-70
2023/08/07 18:28:17;;;;;;;3.07;2.10;;;18.90;76.50;;;;;;21062910;28;20206;-71
2023/08/07 18:38:19;;;;;;;6.63;2.27;;;18.80;77.10;;;;;;21081131;28;20240;-78
2023/08/07 18:48:21;;;;;;;4.67;2.93;;;18.60;77.20;;;;;;21080516;28;20698;-68
2023/08/07 18:58:23;;;;;;;5.63;2.30;;;;;;;;;;21062637;28;20674;-68
2023/08/07 19:08:25;;;;;;;2.80;2.07;;;;;;;;;;21027407;28;20679;-71
2023/08/07 19:18:27;;;;;;;2.53;1.93;;;;;;;;;;21034786;28;20345;-72
2023/08/07 19:28:29;;;;;;;2.57;1.80;;;;;;;;;;21019899;28;20247;-66
2023/08/07 19:38:32;;;;;;;3.67;2.00;;;;;;;;;;21028242;28;20228;-65
2023/08/07 19:48:34;;;;;;;4.93;2.27;;;;;;;;;;21030412;28;20665;-69
2023/08/07 19:58:39;;;;;;;3.80;2.30;;;;;;;;;;21035883;28;20324;-64
2023/08/07 20:08:41;;;;;;;2.77;2.13;;;;;;;;;;21029595;28;20230;-64
2023/08/07 20:18:43;;;;;;;3.00;2.20;;;;;;;;;;21043216;28;20321;-64
2023/08/07 20:28:46;;;;;;;4.10;2.30;;;;;;;;;;21040764;28;20203;-66
2023/08/07 20:38:48;;;;;;;6.00;2.70;;;;;;;;;;21007091;28;20724;-66
2023/08/07 20:48:52;;;;;;;4.30;2.70;;;;;;;;;;21004553;28;20227;-64
2023/08/07 20:58:54;;;;;;;5.10;3.50;;;;;;;;;;21003097;28;20231;-67
2023/08/07 21:08:56;;;;;;;5.47;3.27;;;;;;;;;;21002390;28;20786;-67
2023/08/07 21:18:58;;;;;;;5.10;3.40;;;;;;;;;;21003141;28;20234;-75
2023/08/07 21:29:02;;;;;;;4.27;2.70;;;;;;;;;;21002910;28;20662;-74
2023/08/07 21:39:04;;;;;;;5.37;3.10;;;;;;;;;;21016044;28;20235;-73
2023/08/07 21:49:06;;;;;;;7.70;3.33;;;;;;;;;;21001328;28;20243;-73
2023/08/07 21:59:09;;;;;;;4.50;3.10;;;;;;;;;;21000494;28;20277;-68
2023/08/07 22:09:11;;;;;;;6.37;3.17;;;;;;;;;;20999913;28;20706;-73
2023/08/07 22:19:13;;;;;;;4.80;2.70;;;;;;;;;;20999148;28;20702;-72
2023/08/07 22:29:15;;;;;;;4.30;2.70;;;;;;;;;;20998045;28;20208;-66
2023/08/07 22:39:18;;;;;;;6.13;3.40;;;;;;;;;;20997066;28;20327;-67
2023/08/07 22:49:19;;;;;;;4.73;3.03;;;16.50;92.90;;;;;;21013477;28;20234;-67
2023/08/07 22:59:21;;;;;;;5.00;2.70;;;15.80;98.80;;;;;;20996132;28;20588;-65
2023/08/07 23:09:23;;;;;;;7.47;3.00;;;15.80;98.70;;;;;;20995889;28;20752;-67
2023/08/07 23:19:25;;;;;;;6.07;3.20;;;15.80;98.90;;;;;;20977582;28;20341;-67
2023/08/07 23:29:26;;;;;;;5.07;2.87;;;15.80;99.00;;;;;;20994922;28;20217;-66
2023/08/07 23:39:28;;;;;;;3.70;2.80;;;15.80;99.10;;;;;;20994887;28;20235;-73
2023/08/07 23:49:30;;;;;;;4.33;2.80;;;15.80;99.10;;;;;;21014222;28;20293;-69
2023/08/07 23:59:32;;;;;;;10.47;3.20;;;15.80;99.30;;;;;;21021474;28;20350;-65
